createdAt,value
2024-02-15T00:00:28.528Z,9.56
2024-02-15T00:02:31.930Z,9.56
2024-02-15T00:04:35.569Z,9.56
2024-02-15T00:06:39.833Z,9.54
2024-02-15T00:08:42.799Z,9.53
2024-02-15T00:10:47.214Z,9.49
2024-02-15T00:12:52.206Z,9.48
2024-02-15T00:14:54.669Z,9.44
2024-02-15T00:16:57.996Z,9.41
2024-02-15T00:19:01.554Z,9.41
2024-02-15T00:21:05.054Z,9.39
2024-02-15T00:23:09.360Z,9.41
2024-02-15T00:25:12.595Z,9.43
2024-02-15T00:27:16.515Z,9.42
2024-02-15T00:29:19.520Z,9.36
2024-02-15T00:31:22.430Z,9.35
2024-02-15T00:33:25.322Z,9.35
2024-02-15T00:35:28.785Z,9.32
2024-02-15T00:37:32.027Z,9.28
2024-02-15T00:39:36.176Z,9.22
2024-02-15T00:41:43.214Z,9.16
2024-02-15T00:43:46.457Z,9.12
2024-02-15T00:45:49.561Z,9.05
2024-02-15T00:47:51.547Z,9.03
2024-02-15T00:49:54.656Z,8.97
2024-02-15T00:51:57.574Z,8.95
2024-02-15T00:53:59.501Z,8.90
2024-02-15T00:56:04.121Z,8.85
2024-02-15T00:58:07.031Z,8.82
2024-02-15T01:00:11.319Z,8.71
2024-02-15T01:02:13.883Z,8.59
2024-02-15T01:04:17.555Z,8.51
2024-02-15T01:06:20.502Z,8.40
2024-02-15T01:08:23.417Z,8.32
2024-02-15T01:10:27.041Z,8.27
2024-02-15T01:12:31.293Z,8.24
2024-02-15T01:14:34.463Z,8.20
2024-02-15T01:16:37.955Z,8.15
2024-02-15T01:18:41.059Z,8.09
2024-02-15T01:20:44.088Z,8.01
2024-02-15T01:22:46.945Z,7.99
2024-02-15T01:24:50.064Z,7.97
2024-02-15T01:26:52.882Z,7.97
2024-02-15T01:28:57.429Z,7.95
2024-02-15T01:31:00.309Z,7.91
2024-02-15T01:33:03.303Z,7.94
2024-02-15T01:35:05.818Z,7.91
2024-02-15T01:37:08.696Z,7.93
2024-02-15T01:39:12.086Z,7.91
2024-02-15T01:41:15.070Z,7.88
2024-02-15T01:43:18.134Z,7.88
2024-02-15T01:45:22.815Z,7.82
2024-02-15T01:47:25.693Z,7.77
2024-02-15T01:49:30.190Z,7.73
2024-02-15T01:51:34.575Z,7.65
2024-02-15T01:53:37.686Z,7.66
2024-02-15T01:55:41.809Z,7.62
2024-02-15T01:57:46.796Z,7.54
2024-02-15T01:59:52.930Z,7.53
2024-02-15T02:02:02.206Z,7.51
2024-02-15T02:04:05.590Z,7.50
2024-02-15T02:06:10.084Z,7.50
2024-02-15T02:08:13.188Z,7.47
2024-02-15T02:10:16.734Z,7.45
2024-02-15T02:12:20.336Z,7.38
2024-02-15T02:14:23.620Z,7.34
2024-02-15T02:16:26.302Z,7.28
2024-02-15T02:18:30.652Z,7.26
2024-02-15T02:20:32.684Z,7.21
2024-02-15T02:22:37.547Z,7.19
2024-02-15T02:24:46.509Z,7.16
2024-02-15T02:26:51.553Z,7.19
2024-02-15T02:28:54.539Z,7.21
2024-02-15T02:30:57.737Z,7.21
2024-02-15T02:33:01.146Z,7.23
2024-02-15T02:35:04.650Z,7.28
2024-02-15T02:37:08.958Z,7.24
2024-02-15T02:39:11.831Z,7.23
2024-02-15T02:41:14.704Z,7.20
2024-02-15T02:43:18.895Z,7.21
2024-02-15T02:45:23.901Z,7.21
2024-02-15T02:47:27.306Z,7.22
2024-02-15T02:49:30.178Z,7.14
2024-02-15T02:51:33.089Z,7.14
2024-02-15T02:53:36.781Z,7.10
2024-02-15T02:55:39.637Z,7.08
2024-02-15T02:57:42.686Z,7.05
2024-02-15T02:59:48.269Z,7.03
2024-02-15T03:01:51.127Z,7.04
2024-02-15T03:03:56.291Z,7.05
2024-02-15T03:05:59.803Z,7.06
2024-02-15T03:08:01.698Z,7.03
2024-02-15T03:10:05.832Z,7.03
2024-02-15T03:12:10.873Z,7.08
2024-02-15T03:14:14.111Z,7.06
2024-02-15T03:16:17.800Z,7.08
2024-02-15T03:18:20.655Z,7.08
2024-02-15T03:20:25.257Z,7.10
2024-02-15T03:22:30.360Z,7.07
2024-02-15T03:24:33.211Z,7.09
2024-02-15T03:26:38.286Z,7.11
2024-02-15T03:28:41.290Z,7.15
2024-02-15T03:30:44.421Z,7.13
2024-02-15T03:32:49.449Z,7.12
2024-02-15T03:34:52.620Z,7.09
2024-02-15T03:36:55.627Z,7.06
2024-02-15T03:38:57.558Z,7.03
2024-02-15T03:41:00.842Z,7.02
2024-02-15T03:43:07.801Z,7.02
2024-02-15T03:45:12.146Z,7.04
2024-02-15T03:47:16.031Z,7.04
2024-02-15T03:49:20.314Z,7.04
2024-02-15T03:51:25.553Z,7.08
2024-02-15T03:53:31.380Z,7.05
2024-02-15T03:55:36.424Z,7.04
2024-02-15T03:57:41.988Z,7.12
2024-02-15T03:59:47.108Z,7.13
2024-02-15T04:01:50.036Z,7.16
2024-02-15T04:03:53.053Z,7.14
2024-02-15T04:05:57.429Z,7.18
2024-02-15T04:08:03.373Z,7.20
2024-02-15T04:10:07.612Z,7.20
2024-02-15T04:12:10.982Z,7.26
2024-02-15T04:14:13.786Z,7.26
2024-02-15T04:16:15.706Z,7.26
2024-02-15T04:18:18.532Z,7.25
2024-02-15T04:20:22.546Z,7.27
2024-02-15T04:22:26.747Z,7.24
2024-02-15T04:24:30.834Z,7.26
2024-02-15T04:26:34.746Z,7.23
2024-02-15T04:28:37.628Z,7.22
2024-02-15T04:30:41.684Z,7.21
2024-02-15T04:32:44.728Z,7.24
2024-02-15T04:34:48.266Z,7.21
2024-02-15T04:36:52.081Z,7.23
2024-02-15T04:38:56.296Z,7.22
2024-02-15T04:41:01.344Z,7.23
2024-02-15T04:43:05.393Z,7.23
2024-02-15T04:45:09.767Z,7.21
2024-02-15T04:47:12.794Z,7.21
2024-02-15T04:49:15.434Z,7.20
2024-02-15T04:51:21.004Z,7.21
2024-02-15T04:53:23.882Z,7.21
2024-02-15T04:55:28.286Z,7.23
2024-02-15T04:57:31.308Z,7.28
2024-02-15T04:59:34.087Z,7.30
2024-02-15T05:01:37.702Z,7.27
2024-02-15T05:03:40.559Z,7.27
2024-02-15T05:05:42.958Z,7.28
2024-02-15T05:07:46.070Z,7.27
2024-02-15T05:09:48.955Z,7.26
2024-02-15T05:11:54.035Z,7.16
2024-02-15T05:13:56.789Z,7.14
2024-02-15T05:15:59.711Z,7.13
2024-02-15T05:18:03.310Z,7.15
2024-02-15T05:20:12.056Z,7.12
2024-02-15T05:22:16.454Z,7.12
2024-02-15T05:24:21.199Z,7.05
2024-02-15T05:26:24.637Z,6.99
2024-02-15T05:28:30.905Z,6.93
2024-02-15T05:30:34.738Z,6.88
2024-02-15T05:32:42.601Z,6.82
2024-02-15T05:34:45.889Z,6.78
2024-02-15T05:36:49.361Z,6.75
2024-02-15T05:38:53.357Z,6.73
2024-02-15T05:40:56.574Z,6.73
2024-02-15T05:43:00.103Z,6.69
2024-02-15T05:45:34.543Z,6.70
2024-02-15T05:47:37.773Z,6.69
2024-02-15T05:49:40.527Z,6.71
2024-02-15T05:51:45.300Z,6.69
2024-02-15T05:53:48.409Z,6.72
2024-02-15T05:55:51.208Z,6.73
2024-02-15T05:57:54.559Z,6.74
2024-02-15T06:00:04.332Z,6.69
2024-02-15T06:02:09.298Z,6.72
2024-02-15T06:04:12.140Z,6.69
2024-02-15T06:06:15.207Z,6.68
2024-02-15T06:08:18.639Z,6.59
2024-02-15T06:10:21.365Z,6.62
2024-02-15T06:12:23.165Z,6.60
2024-02-15T06:14:26.436Z,6.62
2024-02-15T06:16:29.444Z,6.61
2024-02-15T06:18:34.488Z,6.57
2024-02-15T06:20:37.587Z,6.53
2024-02-15T06:22:40.854Z,6.47
2024-02-15T06:24:44.017Z,6.43
2024-02-15T06:26:48.833Z,6.38
2024-02-15T06:29:17.778Z,6.40
2024-02-15T06:31:40.733Z,6.37
2024-02-15T06:34:03.449Z,6.43
2024-02-15T06:36:25.176Z,6.42
2024-02-15T06:38:45.322Z,6.43
2024-02-15T06:40:48.200Z,6.44
2024-02-15T06:42:51.039Z,6.42
2024-02-15T06:44:53.826Z,6.43
2024-02-15T06:46:55.583Z,6.40
2024-02-15T06:48:59.926Z,6.38
2024-02-15T06:51:04.319Z,6.38
2024-02-15T06:53:07.189Z,6.37
2024-02-15T06:55:13.056Z,6.35
2024-02-15T06:57:17.026Z,6.25
2024-02-15T06:59:20.536Z,6.23
2024-02-15T07:01:26.318Z,6.22
2024-02-15T07:03:31.047Z,6.26
2024-02-15T07:05:35.328Z,6.27
2024-02-15T07:07:40.106Z,6.30
2024-02-15T07:09:42.886Z,6.35
2024-02-15T07:11:51.370Z,6.43
2024-02-15T07:13:56.176Z,6.53
2024-02-15T07:15:59.063Z,6.57
2024-02-15T07:18:02.289Z,6.65
2024-02-15T07:20:06.873Z,6.77
2024-02-15T07:22:10.598Z,6.92
2024-02-15T07:24:13.652Z,7.04
2024-02-15T07:26:16.401Z,7.18
2024-02-15T07:28:20.385Z,7.25
2024-02-15T07:30:26.128Z,7.36
2024-02-15T07:32:29.340Z,7.42
2024-02-15T07:34:32.189Z,7.54
2024-02-15T07:36:34.929Z,7.64
2024-02-15T07:38:39.052Z,7.69
2024-02-15T07:40:40.938Z,7.80
2024-02-15T07:42:43.992Z,7.87
2024-02-15T07:44:46.763Z,7.93
2024-02-15T07:46:51.501Z,7.99
2024-02-15T07:48:54.409Z,8.02
2024-02-15T07:50:59.481Z,8.05
2024-02-15T07:53:02.230Z,8.09
2024-02-15T07:55:10.050Z,8.14
2024-02-15T07:57:13.171Z,8.21
2024-02-15T07:59:17.842Z,8.24
2024-02-15T08:01:22.511Z,8.28
2024-02-15T08:03:26.076Z,8.32
2024-02-15T08:05:29.041Z,8.33
2024-02-15T08:07:35.838Z,8.36
2024-02-15T08:09:41.976Z,8.40
2024-02-15T08:11:47.837Z,8.44
2024-02-15T08:13:55.575Z,8.47
2024-02-15T08:15:58.707Z,8.43
2024-02-15T08:18:06.256Z,8.40
2024-02-15T08:20:10.818Z,8.29
2024-02-15T08:22:13.616Z,8.15
2024-02-15T08:24:15.357Z,8.07
2024-02-15T08:26:18.813Z,8.11
2024-02-15T08:28:25.590Z,8.16
2024-02-15T08:30:28.898Z,8.25
2024-02-15T08:32:31.804Z,8.32
2024-02-15T08:34:35.272Z,8.39
2024-02-15T08:36:38.198Z,8.47
2024-02-15T08:38:42.502Z,8.53
2024-02-15T08:40:46.903Z,8.57
2024-02-15T08:42:49.721Z,8.61
2024-02-15T08:44:54.121Z,8.58
2024-02-15T08:46:57.551Z,8.66
2024-02-15T08:51:07.078Z,8.87
2024-02-15T08:53:10.067Z,8.95
2024-02-15T08:55:15.522Z,9.06
2024-02-15T08:57:20.337Z,9.17
2024-02-15T08:59:23.300Z,9.27
2024-02-15T09:01:27.423Z,9.35
2024-02-15T09:03:29.363Z,9.49
2024-02-15T09:05:32.191Z,9.60
2024-02-15T09:07:35.026Z,9.67
2024-02-15T09:09:37.843Z,9.78
2024-02-15T09:11:40.678Z,9.86
2024-02-15T09:13:43.486Z,9.97
2024-02-15T09:15:48.433Z,10.11
2024-02-15T09:17:52.048Z,10.28
2024-02-15T09:19:55.993Z,10.38
2024-02-15T09:21:58.890Z,10.49
2024-02-15T09:24:01.633Z,10.60
2024-02-15T09:26:05.233Z,10.69
2024-02-15T09:28:08.169Z,10.83
2024-02-15T09:30:13.145Z,10.98
2024-02-15T09:32:16.082Z,11.14
2024-02-15T09:34:20.331Z,11.26
2024-02-15T09:36:22.314Z,11.41
2024-02-15T09:38:26.363Z,11.55
2024-02-15T09:40:30.915Z,11.70
2024-02-15T09:42:35.796Z,11.80
2024-02-15T09:44:47.659Z,11.88
2024-02-15T09:46:58.675Z,11.98
2024-02-15T09:49:01.888Z,12.10
2024-02-15T09:51:07.115Z,12.20
2024-02-15T09:53:10.407Z,12.33
2024-02-15T09:55:14.307Z,12.47
2024-02-15T09:57:19.278Z,12.61
2024-02-15T09:59:22.433Z,12.75
2024-02-15T10:01:27.162Z,12.81
2024-02-15T10:03:32.433Z,12.87
2024-02-15T10:05:35.432Z,12.80
2024-02-15T10:07:39.826Z,12.91
2024-02-15T10:09:44.049Z,13.01
2024-02-15T10:11:57.881Z,13.15
2024-02-15T10:14:12.625Z,13.27
2024-02-15T10:16:18.217Z,13.39
2024-02-15T10:18:23.525Z,13.46
2024-02-15T10:20:27.232Z,13.53
2024-02-15T10:22:30.144Z,13.62
2024-02-15T10:24:33.338Z,13.65
2024-02-15T10:26:37.371Z,13.73
2024-02-15T10:28:40.377Z,13.75
2024-02-15T10:30:46.361Z,13.84
2024-02-15T10:32:50.464Z,13.91
2024-02-15T10:34:54.941Z,14.03
2024-02-15T10:37:12.218Z,14.13
2024-02-15T10:39:18.823Z,14.29
2024-02-15T10:41:24.000Z,14.38
2024-02-15T10:43:27.197Z,14.52
2024-02-15T10:45:31.935Z,14.56
2024-02-15T10:47:38.175Z,14.63
2024-02-15T10:49:44.374Z,14.81
2024-02-15T10:51:57.461Z,14.92
2024-02-15T10:54:04.633Z,15.05
2024-02-15T10:56:20.348Z,15.19
2024-02-15T10:58:30.395Z,15.32
2024-02-15T11:00:38.519Z,15.30
2024-02-15T11:02:46.301Z,15.41
2024-02-15T11:04:52.125Z,15.57
2024-02-15T11:06:57.643Z,15.70
2024-02-15T11:09:01.352Z,15.87
2024-02-15T11:11:06.155Z,16.01
2024-02-15T11:13:10.002Z,16.11
2024-02-15T11:15:14.533Z,16.26
2024-02-15T11:17:49.629Z,16.43
2024-02-15T11:19:53.795Z,16.56
2024-02-15T11:21:58.064Z,16.69
2024-02-15T11:24:30.580Z,16.78
2024-02-15T11:26:49.441Z,16.65
2024-02-15T11:28:52.120Z,16.79
2024-02-15T11:30:58.247Z,16.93
2024-02-15T11:33:01.165Z,16.77
2024-02-15T11:35:12.505Z,17.01
2024-02-15T11:37:49.009Z,17.15
2024-02-15T11:40:01.086Z,17.33
2024-02-15T11:42:30.125Z,17.42
2024-02-15T11:44:33.702Z,17.54
2024-02-15T11:46:40.200Z,17.56
2024-02-15T11:48:42.457Z,17.66
2024-02-15T11:50:46.080Z,17.75
2024-02-15T11:52:50.049Z,17.90
2024-02-15T11:54:52.823Z,17.98
2024-02-15T11:57:06.234Z,17.96
2024-02-15T11:59:09.477Z,18.00
2024-02-15T12:01:31.738Z,17.93
2024-02-15T12:04:00.989Z,17.83
2024-02-15T12:06:28.427Z,17.90
2024-02-15T12:08:49.141Z,17.99
2024-02-15T12:11:17.338Z,18.15
2024-02-15T12:13:37.817Z,18.14
2024-02-15T12:15:58.238Z,18.19
2024-02-15T12:18:33.644Z,18.15
2024-02-15T12:20:38.212Z,18.20
2024-02-15T12:22:43.945Z,18.26
2024-02-15T12:24:47.813Z,18.31
2024-02-15T12:26:51.913Z,18.37
2024-02-15T12:28:57.293Z,18.32
2024-02-15T12:31:00.225Z,18.32
2024-02-15T12:33:11.982Z,18.34
2024-02-15T12:35:18.566Z,18.27
2024-02-15T12:37:24.863Z,18.23
2024-02-15T12:39:26.931Z,18.21
2024-02-15T12:41:32.036Z,18.18
2024-02-15T12:43:35.369Z,18.25
2024-02-15T12:45:39.590Z,18.29
2024-02-15T12:47:42.858Z,18.26
2024-02-15T12:49:45.743Z,18.31
2024-02-15T12:51:52.453Z,18.30
2024-02-15T12:54:10.730Z,18.26
2024-02-15T12:56:22.262Z,18.22
2024-02-15T12:58:27.554Z,18.29
2024-02-15T13:00:32.579Z,18.24
2024-02-15T13:02:35.771Z,18.28
2024-02-15T13:04:39.511Z,18.23
2024-02-15T13:06:42.681Z,18.16
2024-02-15T13:08:49.802Z,18.12
2024-02-15T13:10:54.100Z,18.02
2024-02-15T13:12:58.720Z,17.93
2024-02-15T13:15:00.835Z,17.87
2024-02-15T13:17:04.846Z,17.81
2024-02-15T13:19:08.441Z,17.87
2024-02-15T13:21:11.745Z,17.90
2024-02-15T13:23:20.782Z,17.85
2024-02-15T13:25:23.890Z,17.50
2024-02-15T13:27:28.048Z,17.41
2024-02-15T13:29:30.758Z,17.52
2024-02-15T13:31:36.016Z,17.55
2024-02-15T13:33:39.231Z,17.63
2024-02-15T13:35:45.396Z,17.67
2024-02-15T13:37:50.881Z,17.70
2024-02-15T13:39:53.890Z,17.70
2024-02-15T13:41:57.379Z,17.69
2024-02-15T13:44:01.563Z,17.65
2024-02-15T13:46:04.402Z,17.63
2024-02-15T13:48:08.980Z,17.72
2024-02-15T13:50:15.397Z,17.73
2024-02-15T13:52:18.261Z,17.74
2024-02-15T13:54:20.130Z,17.71
2024-02-15T13:56:23.152Z,17.80
2024-02-15T13:58:25.981Z,17.77
2024-02-15T14:00:34.468Z,17.82
2024-02-15T14:02:37.644Z,17.77
2024-02-15T14:04:40.626Z,17.70
2024-02-15T14:06:45.337Z,17.74
2024-02-15T14:08:48.574Z,17.78
2024-02-15T14:10:51.987Z,17.86
2024-02-15T14:12:59.267Z,17.93
2024-02-15T14:15:02.166Z,17.85
2024-02-15T14:17:06.544Z,17.91
2024-02-15T14:19:09.990Z,18.03
2024-02-15T14:21:17.858Z,18.05
2024-02-15T14:23:20.654Z,18.10
2024-02-15T14:25:23.665Z,18.23
2024-02-15T14:27:25.508Z,18.29
2024-02-15T14:29:34.116Z,18.29
2024-02-15T14:31:54.157Z,18.35
2024-02-15T14:33:57.819Z,18.33
2024-02-15T14:36:01.307Z,18.39
2024-02-15T14:38:07.315Z,18.42
2024-02-15T14:40:10.364Z,18.43
2024-02-15T14:44:19.508Z,18.45
2024-02-15T14:46:22.194Z,18.47
2024-02-15T14:48:25.738Z,18.45
2024-02-15T14:50:30.121Z,18.43
2024-02-15T14:52:33.070Z,18.33
2024-02-15T14:54:37.443Z,18.28
2024-02-15T14:56:41.364Z,18.17
2024-02-15T14:58:44.742Z,18.09
2024-02-15T15:00:48.777Z,18.04
2024-02-15T15:02:52.013Z,17.95
2024-02-15T15:04:59.038Z,17.90
2024-02-15T15:07:20.624Z,17.76
2024-02-15T15:09:41.355Z,17.67
2024-02-15T15:12:01.886Z,17.53
2024-02-15T15:14:06.907Z,17.44
2024-02-15T15:16:15.280Z,17.82
2024-02-15T15:18:17.209Z,17.77
2024-02-15T15:20:20.988Z,17.71
2024-02-15T15:22:25.089Z,17.60
2024-02-15T15:24:27.920Z,17.51
2024-02-15T15:26:32.453Z,17.43
2024-02-15T15:28:36.863Z,17.36
2024-02-15T15:30:39.673Z,17.20
2024-02-15T15:32:42.573Z,17.10
2024-02-15T15:34:45.767Z,16.99
2024-02-15T15:36:49.272Z,16.93
2024-02-15T15:38:53.306Z,16.83
2024-02-15T15:40:56.093Z,16.72
2024-02-15T15:42:58.791Z,16.66
2024-02-15T15:45:01.554Z,16.61
2024-02-15T15:47:06.088Z,16.57
2024-02-15T15:49:09.083Z,16.51
2024-02-15T15:51:12.024Z,16.44
2024-02-15T15:53:14.942Z,16.37
2024-02-15T15:55:20.485Z,16.29
2024-02-15T15:57:22.759Z,16.13
2024-02-15T15:59:25.597Z,16.02
2024-02-15T16:01:29.831Z,15.91
2024-02-15T16:03:33.048Z,15.88
2024-02-15T16:05:35.957Z,15.79
2024-02-15T16:07:39.041Z,15.71
2024-02-15T16:09:43.767Z,15.58
2024-02-15T16:11:48.862Z,15.47
2024-02-15T16:13:51.630Z,15.39
2024-02-15T16:15:56.098Z,15.28
2024-02-15T16:17:59.512Z,15.14
2024-02-15T16:20:05.697Z,14.95
2024-02-15T16:22:08.570Z,14.81
2024-02-15T16:24:12.852Z,14.63
2024-02-15T16:26:15.649Z,14.51
2024-02-15T16:28:19.780Z,14.45
2024-02-15T16:30:22.715Z,14.37
2024-02-15T16:32:24.655Z,14.33
2024-02-15T16:34:27.668Z,14.31
2024-02-15T16:36:30.498Z,14.24
2024-02-15T16:38:34.425Z,14.22
2024-02-15T16:40:37.130Z,14.18
2024-02-15T16:42:43.535Z,14.12
2024-02-15T16:44:48.505Z,14.10
2024-02-15T16:46:50.368Z,14.09
2024-02-15T16:48:53.970Z,14.06
2024-02-15T16:50:59.054Z,14.01
2024-02-15T16:53:02.138Z,13.96
2024-02-15T16:55:07.041Z,13.94
2024-02-15T16:57:15.302Z,13.92
2024-02-15T16:59:19.815Z,13.88
2024-02-15T17:01:23.999Z,13.86
2024-02-15T17:03:27.173Z,13.84
2024-02-15T17:05:30.506Z,13.81
2024-02-15T17:07:33.273Z,13.83
2024-02-15T17:09:36.697Z,13.80
2024-02-15T17:11:40.995Z,13.81
2024-02-15T17:13:45.318Z,13.78
2024-02-15T17:15:48.046Z,13.70
2024-02-15T17:17:51.839Z,13.65
2024-02-15T17:19:54.719Z,13.58
2024-02-15T17:21:57.442Z,13.58
2024-02-15T17:24:00.325Z,13.58
2024-02-15T17:26:05.843Z,13.50
2024-02-15T17:28:10.147Z,13.41
2024-02-15T17:30:13.407Z,13.33
2024-02-15T17:32:16.511Z,13.28
2024-02-15T17:34:21.431Z,13.25
2024-02-15T17:36:24.899Z,13.23
2024-02-15T17:38:27.681Z,13.20
2024-02-15T17:40:30.725Z,13.16
2024-02-15T17:42:32.629Z,13.19
2024-02-15T17:44:35.418Z,13.16
2024-02-15T17:46:38.816Z,13.16
2024-02-15T17:48:42.690Z,13.18
2024-02-15T17:50:46.998Z,13.18
2024-02-15T17:52:49.812Z,13.18
2024-02-15T17:54:52.822Z,13.17
2024-02-15T17:56:56.148Z,13.15
2024-02-15T17:58:58.000Z,13.09
2024-02-15T18:01:00.803Z,13.03
2024-02-15T18:03:02.621Z,12.94
2024-02-15T18:05:08.624Z,12.88
2024-02-15T18:07:14.871Z,12.82
2024-02-15T18:09:18.875Z,12.79
2024-02-15T18:11:22.249Z,12.80
2024-02-15T18:13:25.267Z,12.76
2024-02-15T18:15:33.315Z,12.79
2024-02-15T18:17:36.101Z,12.83
2024-02-15T18:19:39.158Z,12.87
2024-02-15T18:21:45.530Z,12.90
2024-02-15T18:23:49.631Z,12.92
2024-02-15T18:25:54.579Z,12.91
2024-02-15T18:27:57.566Z,12.89
2024-02-15T18:30:00.607Z,12.90
2024-02-15T18:32:03.580Z,12.90
2024-02-15T18:34:09.902Z,12.90
2024-02-15T18:36:13.267Z,12.90
2024-02-15T18:38:16.753Z,12.89
2024-02-15T18:40:25.121Z,12.90
2024-02-15T18:42:28.711Z,12.89
2024-02-15T18:44:31.450Z,12.89
2024-02-15T18:46:41.511Z,12.87
2024-02-15T18:48:45.167Z,12.81
2024-02-15T18:50:48.749Z,12.78
2024-02-15T18:52:51.983Z,12.75
2024-02-15T18:54:58.177Z,12.71
2024-02-15T18:57:02.620Z,12.63
2024-02-15T18:59:07.317Z,12.54
2024-02-15T19:01:11.278Z,12.46
2024-02-15T19:03:14.153Z,12.39
2024-02-15T19:05:16.208Z,12.34
2024-02-15T19:07:19.122Z,12.37
2024-02-15T19:09:21.859Z,12.40
2024-02-15T19:11:27.555Z,12.42
2024-02-15T19:13:31.735Z,12.45
2024-02-15T19:15:34.539Z,12.45
2024-02-15T19:17:38.887Z,12.41
2024-02-15T19:19:41.717Z,12.40
2024-02-15T19:21:44.604Z,12.38
2024-02-15T19:23:47.400Z,12.30
2024-02-15T19:25:50.309Z,12.24
2024-02-15T19:27:55.156Z,12.21
2024-02-15T19:29:59.475Z,12.19
2024-02-15T19:32:02.243Z,12.17
2024-02-15T19:34:05.285Z,12.15
2024-02-15T19:36:09.304Z,12.16
2024-02-15T19:38:12.402Z,12.14
2024-02-15T19:40:18.985Z,12.09
2024-02-15T19:42:23.139Z,12.09
2024-02-15T19:44:26.165Z,12.06
2024-02-15T19:46:33.983Z,12.01
2024-02-15T19:48:36.899Z,12.00
2024-02-15T19:50:39.954Z,12.01
2024-02-15T19:52:43.543Z,12.00
2024-02-15T19:54:46.983Z,11.97
2024-02-15T19:56:50.060Z,11.93
2024-02-15T19:58:56.038Z,11.90
2024-02-15T20:00:58.880Z,11.87
2024-02-15T20:03:05.637Z,11.87
2024-02-15T20:05:09.589Z,11.83
2024-02-15T20:07:12.604Z,11.82
2024-02-15T20:09:18.380Z,11.85
2024-02-15T20:11:27.020Z,11.80
2024-02-15T20:13:29.920Z,11.80
2024-02-15T20:15:34.307Z,11.82
2024-02-15T20:17:36.510Z,11.78
2024-02-15T20:19:40.795Z,11.74
2024-02-15T20:21:43.687Z,11.72
2024-02-15T20:23:46.912Z,11.67
2024-02-15T20:25:49.757Z,11.66
2024-02-15T20:27:54.120Z,11.61
2024-02-15T20:29:57.075Z,11.58
2024-02-15T20:32:00.703Z,11.49
2024-02-15T20:34:05.090Z,11.43
2024-02-15T20:36:10.015Z,11.36
2024-02-15T20:38:17.755Z,11.28
2024-02-15T20:40:20.964Z,11.22
2024-02-15T20:42:24.131Z,11.15
2024-02-15T20:44:27.249Z,11.10
2024-02-15T20:46:30.884Z,11.05
2024-02-15T20:48:33.826Z,11.00
2024-02-15T20:50:36.860Z,10.97
2024-02-15T20:52:41.063Z,10.93
2024-02-15T20:54:45.614Z,10.87
2024-02-15T20:56:49.858Z,10.79
2024-02-15T20:58:52.781Z,10.76
2024-02-15T21:01:03.690Z,10.71
2024-02-15T21:03:07.889Z,10.68
2024-02-15T21:05:10.478Z,10.62
2024-02-15T21:07:13.739Z,10.61
2024-02-15T21:09:45.454Z,10.54
2024-02-15T21:14:44.825Z,10.44
2024-02-15T21:17:08.873Z,10.42
2024-02-15T21:19:12.983Z,10.35
2024-02-15T21:21:16.613Z,10.34
2024-02-15T21:23:19.592Z,10.30
2024-02-15T21:25:23.853Z,10.28
2024-02-15T21:27:25.781Z,10.24
2024-02-15T21:29:28.533Z,10.18
2024-02-15T21:31:31.400Z,10.17
2024-02-15T21:33:35.075Z,10.19
2024-02-15T21:35:37.948Z,10.20
2024-02-15T21:37:40.695Z,10.20
2024-02-15T21:39:43.768Z,10.15
2024-02-15T21:41:49.645Z,10.14
2024-02-15T21:43:52.500Z,10.14
2024-02-15T21:45:58.363Z,10.07
2024-02-15T21:48:04.309Z,10.01
2024-02-15T21:50:08.128Z,10.02
2024-02-15T21:52:11.498Z,10.02
2024-02-15T21:54:15.637Z,10.02
2024-02-15T21:56:20.141Z,10.02
2024-02-15T21:58:24.369Z,10.01
2024-02-15T22:00:26.829Z,10.11
2024-02-15T22:02:29.815Z,10.15
2024-02-15T22:04:31.646Z,10.13
2024-02-15T22:06:34.616Z,10.16
2024-02-15T22:08:37.478Z,10.17
2024-02-15T22:10:44.243Z,10.19
2024-02-15T22:12:47.082Z,10.19
2024-02-15T22:14:53.802Z,10.23
2024-02-15T22:16:56.813Z,10.23
2024-02-15T22:19:01.134Z,10.28
2024-02-15T22:21:05.245Z,10.25
2024-02-15T22:23:08.486Z,10.28
2024-02-15T22:25:11.796Z,10.27
2024-02-15T22:27:16.426Z,10.28
2024-02-15T22:29:19.787Z,10.29
2024-02-15T22:31:24.409Z,10.36
2024-02-15T22:33:28.377Z,10.37
2024-02-15T22:35:31.255Z,10.42
2024-02-15T22:37:34.808Z,10.44
2024-02-15T22:39:37.712Z,10.49
2024-02-15T22:41:40.713Z,10.46
2024-02-15T22:43:45.578Z,10.46
2024-02-15T22:45:49.090Z,10.46
2024-02-15T22:47:53.427Z,10.46
2024-02-15T22:49:57.078Z,10.43
2024-02-15T22:52:01.919Z,10.47
2024-02-15T22:54:05.397Z,10.49
2024-02-15T22:56:10.317Z,10.49
2024-02-15T22:58:13.217Z,10.47
2024-02-15T23:00:15.939Z,10.44
2024-02-15T23:02:18.860Z,10.46
2024-02-15T23:04:23.084Z,10.49
2024-02-15T23:06:26.045Z,10.55
2024-02-15T23:08:29.342Z,10.52
2024-02-15T23:10:32.162Z,10.58
2024-02-15T23:12:36.993Z,10.59
2024-02-15T23:14:39.895Z,10.62
2024-02-15T23:16:43.241Z,10.69
2024-02-15T23:18:46.314Z,10.71
2024-02-15T23:20:51.339Z,10.79
2024-02-15T23:22:54.176Z,10.73
2024-02-15T23:24:59.873Z,10.73
2024-02-15T23:27:03.956Z,10.75
2024-02-15T23:29:07.363Z,10.75
2024-02-15T23:31:13.460Z,10.74
2024-02-15T23:33:20.131Z,10.77
2024-02-15T23:35:31.751Z,10.82
2024-02-15T23:37:53.351Z,10.84
2024-02-15T23:40:13.741Z,10.87
2024-02-15T23:42:16.906Z,10.81
2024-02-15T23:44:21.089Z,10.81
2024-02-15T23:46:23.899Z,10.82
2024-02-15T23:48:28.079Z,10.79
2024-02-15T23:50:33.784Z,10.87
2024-02-15T23:52:38.720Z,10.91
2024-02-15T23:54:41.676Z,10.89
2024-02-15T23:56:44.947Z,10.92
2024-02-15T23:58:47.941Z,10.95
